sensor_id;sensor_type;location;lat;lon;timestamp;P1;durP1;ratioP1;P2;durP2;ratioP2
10645;SDS011;5371;49.782;9.932;2023-12-07T00:02:04;14.60;;;7.93;;
10645;SDS011;5371;49.782;9.932;2023-12-07T00:04:31;15.13;;;8.70;;
10645;SDS011;5371;49.782;9.932;2023-12-07T00:06:58;13.53;;;9.47;;
10645;SDS011;5371;49.782;9.932;2023-12-07T00:09:25;15.17;;;10.07;;
10645;SDS011;5371;49.782;9.932;2023-12-07T00:11:52;13.73;;;8.40;;
10645;SDS011;5371;49.782;9.932;2023-12-07T00:14:20;16.07;;;9.63;;
10645;SDS011;5371;49.782;9.932;2023-12-07T00:16:47;13.00;;;8.80;;
10645;SDS011;5371;49.782;9.932;2023-12-07T00:19:14;14.00;;;9.23;;
10645;SDS011;5371;49.782;9.932;2023-12-07T00:21:41;14.33;;;8.63;;
10645;SDS011;5371;49.782;9.932;2023-12-07T00:24:08;13.93;;;9.30;;
10645;SDS011;5371;49.782;9.932;2023-12-07T00:26:35;13.27;;;9.43;;
10645;SDS011;5371;49.782;9.932;2023-12-07T00:29:03;17.93;;;10.43;;
10645;SDS011;5371;49.782;9.932;2023-12-07T00:31:31;12.57;;;9.07;;
10645;SDS011;5371;49.782;9.932;2023-12-07T00:33:58;15.77;;;9.30;;
10645;SDS011;5371;49.782;9.932;2023-12-07T00:36:26;15.67;;;9.57;;
10645;SDS011;5371;49.782;9.932;2023-12-07T00:38:53;17.33;;;9.80;;
10645;SDS011;5371;49.782;9.932;2023-12-07T00:41:20;12.30;;;8.97;;
10645;SDS011;5371;49.782;9.932;2023-12-07T00:43:47;13.70;;;9.77;;
10645;SDS011;5371;49.782;9.932;2023-12-07T00:46:14;14.17;;;9.83;;
10645;SDS011;5371;49.782;9.932;2023-12-07T00:48:42;14.03;;;9.03;;
10645;SDS011;5371;49.782;9.932;2023-12-07T00:51:09;17.20;;;9.73;;
10645;SDS011;5371;49.782;9.932;2023-12-07T00:53:36;17.37;;;10.70;;
10645;SDS011;5371;49.782;9.932;2023-12-07T00:56:04;16.57;;;9.43;;
10645;SDS011;5371;49.782;9.932;2023-12-07T00:58:31;15.87;;;9.37;;
10645;SDS011;5371;49.782;9.932;2023-12-07T01:01:16;16.20;;;9.77;;
10645;SDS011;5371;49.782;9.932;2023-12-07T01:03:45;15.07;;;9.47;;
10645;SDS011;5371;49.782;9.932;2023-12-07T01:06:12;15.90;;;9.40;;
10645;SDS011;5371;49.782;9.932;2023-12-07T01:08:42;14.03;;;9.60;;
10645;SDS011;5371;49.782;9.932;2023-12-07T01:11:09;15.73;;;10.27;;
10645;SDS011;5371;49.782;9.932;2023-12-07T01:13:36;16.37;;;9.83;;
10645;SDS011;5371;49.782;9.932;2023-12-07T01:16:03;14.40;;;9.20;;
10645;SDS011;5371;49.782;9.932;2023-12-07T01:18:30;14.37;;;9.03;;
10645;SDS011;5371;49.782;9.932;2023-12-07T01:20:59;13.47;;;9.03;;
10645;SDS011;5371;49.782;9.932;2023-12-07T01:23:26;15.60;;;9.13;;
10645;SDS011;5371;49.782;9.932;2023-12-07T01:25:53;15.07;;;8.50;;
10645;SDS011;5371;49.782;9.932;2023-12-07T01:28:20;14.40;;;9.30;;
10645;SDS011;5371;49.782;9.932;2023-12-07T01:30:47;12.63;;;8.80;;
10645;SDS011;5371;49.782;9.932;2023-12-07T01:33:14;13.27;;;8.97;;
10645;SDS011;5371;49.782;9.932;2023-12-07T01:35:41;12.53;;;8.83;;
10645;SDS011;5371;49.782;9.932;2023-12-07T01:38:09;13.70;;;8.73;;
10645;SDS011;5371;49.782;9.932;2023-12-07T01:40:36;16.73;;;9.03;;
10645;SDS011;5371;49.782;9.932;2023-12-07T01:43:03;13.63;;;8.53;;
10645;SDS011;5371;49.782;9.932;2023-12-07T01:45:30;14.27;;;8.97;;
10645;SDS011;5371;49.782;9.932;2023-12-07T01:47:57;13.73;;;8.87;;
10645;SDS011;5371;49.782;9.932;2023-12-07T01:50:25;14.07;;;9.20;;
10645;SDS011;5371;49.782;9.932;2023-12-07T01:52:54;15.10;;;8.77;;
10645;SDS011;5371;49.782;9.932;2023-12-07T01:55:25;12.57;;;8.83;;
10645;SDS011;5371;49.782;9.932;2023-12-07T01:57:52;14.57;;;9.23;;
10645;SDS011;5371;49.782;9.932;2023-12-07T02:00:20;15.13;;;9.00;;
10645;SDS011;5371;49.782;9.932;2023-12-07T02:02:47;15.60;;;9.33;;
10645;SDS011;5371;49.782;9.932;2023-12-07T02:05:14;16.03;;;9.33;;
10645;SDS011;5371;49.782;9.932;2023-12-07T02:07:41;15.97;;;9.43;;
10645;SDS011;5371;49.782;9.932;2023-12-07T02:10:09;15.23;;;8.93;;
10645;SDS011;5371;49.782;9.932;2023-12-07T02:12:38;13.27;;;8.87;;
10645;SDS011;5371;49.782;9.932;2023-12-07T02:15:05;11.60;;;8.87;;
10645;SDS011;5371;49.782;9.932;2023-12-07T02:17:35;14.47;;;9.07;;
10645;SDS011;5371;49.782;9.932;2023-12-07T02:20:08;15.67;;;9.23;;
10645;SDS011;5371;49.782;9.932;2023-12-07T02:22:40;15.00;;;9.13;;
10645;SDS011;5371;49.782;9.932;2023-12-07T02:25:09;19.37;;;9.53;;
10645;SDS011;5371;49.782;9.932;2023-12-07T02:27:38;15.30;;;9.30;;
10645;SDS011;5371;49.782;9.932;2023-12-07T02:30:07;15.43;;;9.47;;
10645;SDS011;5371;49.782;9.932;2023-12-07T02:32:35;13.53;;;9.20;;
10645;SDS011;5371;49.782;9.932;2023-12-07T02:35:02;16.07;;;9.53;;
10645;SDS011;5371;49.782;9.932;2023-12-07T02:37:32;14.00;;;9.77;;
10645;SDS011;5371;49.782;9.932;2023-12-07T02:40:02;18.30;;;9.83;;
10645;SDS011;5371;49.782;9.932;2023-12-07T02:42:30;15.70;;;9.90;;
10645;SDS011;5371;49.782;9.932;2023-12-07T02:44:59;14.97;;;9.30;;
10645;SDS011;5371;49.782;9.932;2023-12-07T02:47:26;15.77;;;9.60;;
10645;SDS011;5371;49.782;9.932;2023-12-07T02:49:53;19.17;;;9.67;;
10645;SDS011;5371;49.782;9.932;2023-12-07T02:52:20;16.63;;;10.20;;
10645;SDS011;5371;49.782;9.932;2023-12-07T02:54:47;16.37;;;9.93;;
10645;SDS011;5371;49.782;9.932;2023-12-07T02:57:14;15.50;;;10.00;;
10645;SDS011;5371;49.782;9.932;2023-12-07T02:59:41;16.30;;;9.67;;
10645;SDS011;5371;49.782;9.932;2023-12-07T03:02:09;20.07;;;10.70;;
10645;SDS011;5371;49.782;9.932;2023-12-07T03:04:36;14.50;;;9.57;;
10645;SDS011;5371;49.782;9.932;2023-12-07T03:07:03;16.30;;;9.70;;
10645;SDS011;5371;49.782;9.932;2023-12-07T03:09:30;19.20;;;10.13;;
10645;SDS011;5371;49.782;9.932;2023-12-07T03:11:57;15.17;;;10.10;;
10645;SDS011;5371;49.782;9.932;2023-12-07T03:14:24;19.03;;;9.90;;
10645;SDS011;5371;49.782;9.932;2023-12-07T03:16:51;16.87;;;9.90;;
10645;SDS011;5371;49.782;9.932;2023-12-07T03:19:20;15.20;;;9.17;;
10645;SDS011;5371;49.782;9.932;2023-12-07T03:21:46;14.67;;;9.10;;
10645;SDS011;5371;49.782;9.932;2023-12-07T03:24:14;18.57;;;9.60;;
10645;SDS011;5371;49.782;9.932;2023-12-07T03:26:41;17.07;;;9.40;;
10645;SDS011;5371;49.782;9.932;2023-12-07T03:29:07;17.23;;;9.23;;
10645;SDS011;5371;49.782;9.932;2023-12-07T03:31:34;16.50;;;10.40;;
10645;SDS011;5371;49.782;9.932;2023-12-07T03:34:01;16.77;;;9.40;;
10645;SDS011;5371;49.782;9.932;2023-12-07T03:36:32;17.57;;;9.90;;
10645;SDS011;5371;49.782;9.932;2023-12-07T03:38:59;16.90;;;9.97;;
10645;SDS011;5371;49.782;9.932;2023-12-07T03:41:26;17.30;;;9.90;;
10645;SDS011;5371;49.782;9.932;2023-12-07T03:43:53;15.03;;;9.40;;
10645;SDS011;5371;49.782;9.932;2023-12-07T03:46:19;17.23;;;10.57;;
10645;SDS011;5371;49.782;9.932;2023-12-07T03:48:46;17.13;;;9.60;;
10645;SDS011;5371;49.782;9.932;2023-12-07T03:51:13;17.23;;;10.00;;
10645;SDS011;5371;49.782;9.932;2023-12-07T03:53:43;17.40;;;9.93;;
10645;SDS011;5371;49.782;9.932;2023-12-07T03:56:10;17.73;;;10.30;;
10645;SDS011;5371;49.782;9.932;2023-12-07T03:58:37;16.67;;;9.37;;
10645;SDS011;5371;49.782;9.932;2023-12-07T04:01:04;15.27;;;9.53;;
10645;SDS011;5371;49.782;9.932;2023-12-07T04:03:32;18.60;;;10.30;;
10645;SDS011;5371;49.782;9.932;2023-12-07T04:05:58;15.17;;;9.80;;
10645;SDS011;5371;49.782;9.932;2023-12-07T04:08:26;16.80;;;10.57;;
10645;SDS011;5371;49.782;9.932;2023-12-07T04:10:54;18.47;;;10.90;;
10645;SDS011;5371;49.782;9.932;2023-12-07T04:13:21;15.37;;;10.27;;
10645;SDS011;5371;49.782;9.932;2023-12-07T04:15:48;18.47;;;10.73;;
10645;SDS011;5371;49.782;9.932;2023-12-07T04:18:15;17.77;;;10.30;;
10645;SDS011;5371;49.782;9.932;2023-12-07T04:20:42;17.87;;;10.93;;
10645;SDS011;5371;49.782;9.932;2023-12-07T04:23:09;17.43;;;9.93;;
10645;SDS011;5371;49.782;9.932;2023-12-07T04:25:35;17.13;;;10.63;;
10645;SDS011;5371;49.782;9.932;2023-12-07T04:28:04;16.77;;;10.10;;
10645;SDS011;5371;49.782;9.932;2023-12-07T04:30:31;18.47;;;10.37;;
10645;SDS011;5371;49.782;9.932;2023-12-07T04:32:58;17.77;;;10.57;;
10645;SDS011;5371;49.782;9.932;2023-12-07T04:35:25;19.50;;;11.07;;
10645;SDS011;5371;49.782;9.932;2023-12-07T04:37:53;24.50;;;11.63;;
10645;SDS011;5371;49.782;9.932;2023-12-07T04:40:20;17.33;;;10.33;;
10645;SDS011;5371;49.782;9.932;2023-12-07T04:42:47;18.70;;;9.90;;
10645;SDS011;5371;49.782;9.932;2023-12-07T04:45:16;17.20;;;10.20;;
10645;SDS011;5371;49.782;9.932;2023-12-07T04:47:43;19.17;;;10.73;;
10645;SDS011;5371;49.782;9.932;2023-12-07T04:50:11;19.43;;;11.63;;
10645;SDS011;5371;49.782;9.932;2023-12-07T04:52:38;18.33;;;10.83;;
10645;SDS011;5371;49.782;9.932;2023-12-07T04:55:06;20.00;;;11.70;;
10645;SDS011;5371;49.782;9.932;2023-12-07T04:57:33;19.60;;;11.53;;
10645;SDS011;5371;49.782;9.932;2023-12-07T05:00:00;24.70;;;11.23;;
10645;SDS011;5371;49.782;9.932;2023-12-07T05:02:32;20.20;;;11.17;;
10645;SDS011;5371;49.782;9.932;2023-12-07T05:04:59;17.37;;;11.37;;
10645;SDS011;5371;49.782;9.932;2023-12-07T05:07:26;21.23;;;11.93;;
10645;SDS011;5371;49.782;9.932;2023-12-07T05:09:53;22.80;;;12.20;;
10645;SDS011;5371;49.782;9.932;2023-12-07T05:12:22;19.37;;;11.43;;
10645;SDS011;5371;49.782;9.932;2023-12-07T05:14:48;23.70;;;12.17;;
10645;SDS011;5371;49.782;9.932;2023-12-07T05:17:16;24.10;;;12.43;;
10645;SDS011;5371;49.782;9.932;2023-12-07T05:19:45;22.70;;;12.20;;
10645;SDS011;5371;49.782;9.932;2023-12-07T05:22:12;18.73;;;11.03;;
10645;SDS011;5371;49.782;9.932;2023-12-07T05:24:40;20.73;;;11.27;;
10645;SDS011;5371;49.782;9.932;2023-12-07T05:27:07;22.17;;;12.00;;
10645;SDS011;5371;49.782;9.932;2023-12-07T05:29:34;23.83;;;12.17;;
10645;SDS011;5371;49.782;9.932;2023-12-07T05:32:04;23.87;;;12.97;;
10645;SDS011;5371;49.782;9.932;2023-12-07T05:34:32;25.00;;;11.73;;
10645;SDS011;5371;49.782;9.932;2023-12-07T05:37:07;21.80;;;12.23;;
10645;SDS011;5371;49.782;9.932;2023-12-07T05:39:34;20.33;;;11.73;;
10645;SDS011;5371;49.782;9.932;2023-12-07T05:42:01;20.60;;;11.87;;
10645;SDS011;5371;49.782;9.932;2023-12-07T05:44:29;18.70;;;11.63;;
10645;SDS011;5371;49.782;9.932;2023-12-07T05:46:56;21.23;;;11.70;;
10645;SDS011;5371;49.782;9.932;2023-12-07T05:49:24;20.60;;;12.20;;
10645;SDS011;5371;49.782;9.932;2023-12-07T05:51:50;22.63;;;12.33;;
10645;SDS011;5371;49.782;9.932;2023-12-07T05:54:19;18.10;;;10.80;;
10645;SDS011;5371;49.782;9.932;2023-12-07T05:56:47;20.97;;;12.13;;
10645;SDS011;5371;49.782;9.932;2023-12-07T05:59:14;30.10;;;12.67;;
10645;SDS011;5371;49.782;9.932;2023-12-07T06:01:41;20.23;;;12.23;;
10645;SDS011;5371;49.782;9.932;2023-12-07T06:04:09;20.97;;;12.27;;
10645;SDS011;5371;49.782;9.932;2023-12-07T06:06:37;22.33;;;12.13;;
10645;SDS011;5371;49.782;9.932;2023-12-07T06:09:04;21.47;;;12.80;;
10645;SDS011;5371;49.782;9.932;2023-12-07T06:11:33;20.57;;;12.60;;
10645;SDS011;5371;49.782;9.932;2023-12-07T06:14:00;22.77;;;12.20;;
10645;SDS011;5371;49.782;9.932;2023-12-07T06:16:27;23.97;;;13.07;;
10645;SDS011;5371;49.782;9.932;2023-12-07T06:18:54;21.33;;;12.60;;
10645;SDS011;5371;49.782;9.932;2023-12-07T06:21:21;22.60;;;13.47;;
10645;SDS011;5371;49.782;9.932;2023-12-07T06:23:48;23.17;;;13.47;;
10645;SDS011;5371;49.782;9.932;2023-12-07T06:26:14;23.40;;;12.93;;
10645;SDS011;5371;49.782;9.932;2023-12-07T06:28:43;25.53;;;13.57;;
10645;SDS011;5371;49.782;9.932;2023-12-07T06:31:09;22.73;;;13.47;;
10645;SDS011;5371;49.782;9.932;2023-12-07T06:33:40;28.17;;;14.13;;
10645;SDS011;5371;49.782;9.932;2023-12-07T06:36:07;24.90;;;14.07;;
10645;SDS011;5371;49.782;9.932;2023-12-07T06:38:34;24.50;;;13.93;;
10645;SDS011;5371;49.782;9.932;2023-12-07T06:41:01;24.97;;;14.03;;
10645;SDS011;5371;49.782;9.932;2023-12-07T06:43:28;26.27;;;14.57;;
10645;SDS011;5371;49.782;9.932;2023-12-07T06:45:56;26.10;;;14.50;;
10645;SDS011;5371;49.782;9.932;2023-12-07T06:48:23;29.77;;;15.73;;
10645;SDS011;5371;49.782;9.932;2023-12-07T06:50:50;28.73;;;15.73;;
10645;SDS011;5371;49.782;9.932;2023-12-07T06:53:17;31.43;;;17.40;;
10645;SDS011;5371;49.782;9.932;2023-12-07T06:55:44;32.37;;;17.53;;
10645;SDS011;5371;49.782;9.932;2023-12-07T06:58:11;36.47;;;19.03;;
10645;SDS011;5371;49.782;9.932;2023-12-07T07:00:38;36.17;;;19.00;;
10645;SDS011;5371;49.782;9.932;2023-12-07T07:03:06;35.93;;;18.20;;
10645;SDS011;5371;49.782;9.932;2023-12-07T07:05:33;33.43;;;18.17;;
10645;SDS011;5371;49.782;9.932;2023-12-07T07:08:00;37.07;;;18.30;;
10645;SDS011;5371;49.782;9.932;2023-12-07T07:10:27;38.77;;;18.73;;
10645;SDS011;5371;49.782;9.932;2023-12-07T07:12:54;37.10;;;18.57;;
10645;SDS011;5371;49.782;9.932;2023-12-07T07:15:21;35.90;;;17.70;;
10645;SDS011;5371;49.782;9.932;2023-12-07T07:17:49;37.73;;;17.73;;
10645;SDS011;5371;49.782;9.932;2023-12-07T07:20:18;33.90;;;18.10;;
10645;SDS011;5371;49.782;9.932;2023-12-07T07:22:46;34.87;;;17.73;;
10645;SDS011;5371;49.782;9.932;2023-12-07T07:25:13;36.03;;;18.63;;
10645;SDS011;5371;49.782;9.932;2023-12-07T07:27:41;34.80;;;18.50;;
10645;SDS011;5371;49.782;9.932;2023-12-07T07:30:08;34.47;;;18.30;;
10645;SDS011;5371;49.782;9.932;2023-12-07T07:32:36;37.80;;;18.77;;
10645;SDS011;5371;49.782;9.932;2023-12-07T07:35:03;38.57;;;18.47;;
10645;SDS011;5371;49.782;9.932;2023-12-07T07:37:32;33.90;;;17.73;;
10645;SDS011;5371;49.782;9.932;2023-12-07T07:39:59;34.27;;;17.77;;
10645;SDS011;5371;49.782;9.932;2023-12-07T07:42:32;34.40;;;17.77;;
10645;SDS011;5371;49.782;9.932;2023-12-07T07:44:59;37.63;;;17.97;;
10645;SDS011;5371;49.782;9.932;2023-12-07T07:47:26;35.33;;;17.40;;
10645;SDS011;5371;49.782;9.932;2023-12-07T07:49:53;30.07;;;16.23;;
10645;SDS011;5371;49.782;9.932;2023-12-07T07:52:20;34.13;;;17.63;;
10645;SDS011;5371;49.782;9.932;2023-12-07T07:54:48;31.73;;;15.97;;
10645;SDS011;5371;49.782;9.932;2023-12-07T07:57:15;30.63;;;16.30;;
10645;SDS011;5371;49.782;9.932;2023-12-07T07:59:42;27.30;;;15.30;;
10645;SDS011;5371;49.782;9.932;2023-12-07T08:02:09;29.67;;;15.67;;
10645;SDS011;5371;49.782;9.932;2023-12-07T08:04:35;25.63;;;14.80;;
10645;SDS011;5371;49.782;9.932;2023-12-07T08:07:03;27.67;;;14.87;;
10645;SDS011;5371;49.782;9.932;2023-12-07T08:09:30;26.73;;;14.07;;
10645;SDS011;5371;49.782;9.932;2023-12-07T08:11:58;20.93;;;13.10;;
10645;SDS011;5371;49.782;9.932;2023-12-07T08:14:27;25.23;;;13.27;;
10645;SDS011;5371;49.782;9.932;2023-12-07T08:16:54;23.97;;;12.73;;
10645;SDS011;5371;49.782;9.932;2023-12-07T08:19:21;22.20;;;12.20;;
10645;SDS011;5371;49.782;9.932;2023-12-07T08:21:48;23.20;;;12.27;;
10645;SDS011;5371;49.782;9.932;2023-12-07T08:24:17;22.50;;;11.63;;
10645;SDS011;5371;49.782;9.932;2023-12-07T08:26:44;20.10;;;11.60;;
10645;SDS011;5371;49.782;9.932;2023-12-07T08:29:12;23.03;;;11.50;;
10645;SDS011;5371;49.782;9.932;2023-12-07T08:31:39;21.67;;;11.10;;
10645;SDS011;5371;49.782;9.932;2023-12-07T08:34:06;22.67;;;11.80;;
10645;SDS011;5371;49.782;9.932;2023-12-07T08:36:33;21.07;;;11.97;;
10645;SDS011;5371;49.782;9.932;2023-12-07T08:39:00;22.13;;;11.90;;
10645;SDS011;5371;49.782;9.932;2023-12-07T08:41:27;21.93;;;11.63;;
10645;SDS011;5371;49.782;9.932;2023-12-07T08:43:54;20.10;;;11.40;;
10645;SDS011;5371;49.782;9.932;2023-12-07T08:46:22;24.13;;;11.17;;
10645;SDS011;5371;49.782;9.932;2023-12-07T08:48:50;19.90;;;11.60;;
10645;SDS011;5371;49.782;9.932;2023-12-07T08:51:17;20.47;;;11.60;;
10645;SDS011;5371;49.782;9.932;2023-12-07T08:53:45;19.53;;;11.43;;
10645;SDS011;5371;49.782;9.932;2023-12-07T08:56:11;19.73;;;10.73;;
10645;SDS011;5371;49.782;9.932;2023-12-07T08:58:39;19.67;;;11.33;;
10645;SDS011;5371;49.782;9.932;2023-12-07T09:01:06;18.57;;;11.00;;
10645;SDS011;5371;49.782;9.932;2023-12-07T09:03:34;22.17;;;11.40;;
10645;SDS011;5371;49.782;9.932;2023-12-07T09:06:03;20.07;;;11.30;;
10645;SDS011;5371;49.782;9.932;2023-12-07T09:08:31;19.47;;;11.50;;
10645;SDS011;5371;49.782;9.932;2023-12-07T09:10:58;20.00;;;11.50;;
10645;SDS011;5371;49.782;9.932;2023-12-07T09:13:25;24.53;;;12.20;;
10645;SDS011;5371;49.782;9.932;2023-12-07T09:15:53;25.83;;;13.57;;
10645;SDS011;5371;49.782;9.932;2023-12-07T09:18:20;20.43;;;11.80;;
10645;SDS011;5371;49.782;9.932;2023-12-07T09:20:49;28.03;;;14.23;;
10645;SDS011;5371;49.782;9.932;2023-12-07T09:23:16;23.30;;;12.90;;
10645;SDS011;5371;49.782;9.932;2023-12-07T09:25:43;28.17;;;14.33;;
10645;SDS011;5371;49.782;9.932;2023-12-07T09:28:10;29.87;;;15.07;;
10645;SDS011;5371;49.782;9.932;2023-12-07T09:30:37;26.60;;;14.10;;
10645;SDS011;5371;49.782;9.932;2023-12-07T09:33:04;25.23;;;12.47;;
10645;SDS011;5371;49.782;9.932;2023-12-07T09:35:31;23.60;;;12.20;;
10645;SDS011;5371;49.782;9.932;2023-12-07T09:38:01;22.60;;;11.67;;
10645;SDS011;5371;49.782;9.932;2023-12-07T09:40:29;25.33;;;12.77;;
10645;SDS011;5371;49.782;9.932;2023-12-07T09:42:56;23.53;;;12.10;;
10645;SDS011;5371;49.782;9.932;2023-12-07T09:45:23;24.53;;;11.77;;
10645;SDS011;5371;49.782;9.932;2023-12-07T09:47:50;20.27;;;11.03;;
10645;SDS011;5371;49.782;9.932;2023-12-07T09:50:18;16.83;;;9.63;;
10645;SDS011;5371;49.782;9.932;2023-12-07T09:52:47;16.63;;;9.93;;
10645;SDS011;5371;49.782;9.932;2023-12-07T09:55:17;18.80;;;9.97;;
10645;SDS011;5371;49.782;9.932;2023-12-07T09:57:45;20.33;;;10.50;;
10645;SDS011;5371;49.782;9.932;2023-12-07T10:00:13;15.43;;;8.90;;
10645;SDS011;5371;49.782;9.932;2023-12-07T10:02:41;16.40;;;9.80;;
10645;SDS011;5371;49.782;9.932;2023-12-07T10:05:09;15.80;;;9.70;;
10645;SDS011;5371;49.782;9.932;2023-12-07T10:07:39;16.27;;;9.33;;
10645;SDS011;5371;49.782;9.932;2023-12-07T10:10:07;18.70;;;10.33;;
10645;SDS011;5371;49.782;9.932;2023-12-07T10:12:52;17.43;;;10.13;;
10645;SDS011;5371;49.782;9.932;2023-12-07T10:15:20;17.30;;;10.23;;
10645;SDS011;5371;49.782;9.932;2023-12-07T10:17:49;23.80;;;11.07;;
10645;SDS011;5371;49.782;9.932;2023-12-07T10:20:17;22.00;;;11.00;;
10645;SDS011;5371;49.782;9.932;2023-12-07T10:22:49;19.17;;;10.10;;
10645;SDS011;5371;49.782;9.932;2023-12-07T10:25:16;19.13;;;10.13;;
10645;SDS011;5371;49.782;9.932;2023-12-07T10:27:48;23.23;;;11.93;;
10645;SDS011;5371;49.782;9.932;2023-12-07T10:30:16;20.77;;;11.10;;
10645;SDS011;5371;49.782;9.932;2023-12-07T10:32:50;21.63;;;10.93;;
10645;SDS011;5371;49.782;9.932;2023-12-07T10:35:17;21.57;;;11.43;;
10645;SDS011;5371;49.782;9.932;2023-12-07T10:37:44;26.97;;;12.30;;
10645;SDS011;5371;49.782;9.932;2023-12-07T10:40:12;25.00;;;12.23;;
10645;SDS011;5371;49.782;9.932;2023-12-07T10:42:40;28.17;;;12.93;;
10645;SDS011;5371;49.782;9.932;2023-12-07T10:45:08;25.83;;;13.00;;
10645;SDS011;5371;49.782;9.932;2023-12-07T10:47:39;26.40;;;13.83;;
10645;SDS011;5371;49.782;9.932;2023-12-07T10:50:07;30.50;;;14.07;;
10645;SDS011;5371;49.782;9.932;2023-12-07T10:52:36;26.40;;;13.20;;
10645;SDS011;5371;49.782;9.932;2023-12-07T10:55:07;25.27;;;12.67;;
10645;SDS011;5371;49.782;9.932;2023-12-07T10:57:34;28.33;;;14.23;;
10645;SDS011;5371;49.782;9.932;2023-12-07T11:00:03;25.70;;;13.27;;
10645;SDS011;5371;49.782;9.932;2023-12-07T11:02:31;26.37;;;14.10;;
10645;SDS011;5371;49.782;9.932;2023-12-07T11:05:00;32.30;;;15.13;;
10645;SDS011;5371;49.782;9.932;2023-12-07T11:07:30;29.47;;;14.50;;
10645;SDS011;5371;49.782;9.932;2023-12-07T11:10:05;30.40;;;14.70;;
10645;SDS011;5371;49.782;9.932;2023-12-07T11:12:37;32.20;;;15.50;;
10645;SDS011;5371;49.782;9.932;2023-12-07T11:15:11;30.67;;;16.47;;
10645;SDS011;5371;49.782;9.932;2023-12-07T11:17:47;32.73;;;15.80;;
10645;SDS011;5371;49.782;9.932;2023-12-07T11:20:19;31.27;;;15.90;;
10645;SDS011;5371;49.782;9.932;2023-12-07T11:22:47;32.30;;;15.50;;
10645;SDS011;5371;49.782;9.932;2023-12-07T11:25:15;28.47;;;15.93;;
10645;SDS011;5371;49.782;9.932;2023-12-07T11:27:44;29.80;;;16.00;;
10645;SDS011;5371;49.782;9.932;2023-12-07T11:30:13;30.43;;;16.70;;
10645;SDS011;5371;49.782;9.932;2023-12-07T11:32:41;30.37;;;16.37;;
10645;SDS011;5371;49.782;9.932;2023-12-07T11:35:11;30.60;;;16.67;;
10645;SDS011;5371;49.782;9.932;2023-12-07T11:40:36;30.30;;;15.90;;
10645;SDS011;5371;49.782;9.932;2023-12-07T11:43:04;29.23;;;15.67;;
10645;SDS011;5371;49.782;9.932;2023-12-07T11:45:42;26.73;;;15.50;;
10645;SDS011;5371;49.782;9.932;2023-12-07T11:48:14;30.97;;;15.47;;
10645;SDS011;5371;49.782;9.932;2023-12-07T11:50:56;24.23;;;14.03;;
10645;SDS011;5371;49.782;9.932;2023-12-07T11:53:25;27.87;;;15.23;;
10645;SDS011;5371;49.782;9.932;2023-12-07T11:55:53;26.63;;;15.93;;
10645;SDS011;5371;49.782;9.932;2023-12-07T11:58:20;27.30;;;15.10;;
10645;SDS011;5371;49.782;9.932;2023-12-07T12:00:47;25.23;;;13.97;;
10645;SDS011;5371;49.782;9.932;2023-12-07T12:03:14;24.83;;;14.80;;
10645;SDS011;5371;49.782;9.932;2023-12-07T12:05:41;26.07;;;14.77;;
10645;SDS011;5371;49.782;9.932;2023-12-07T12:08:09;26.77;;;14.60;;
10645;SDS011;5371;49.782;9.932;2023-12-07T12:10:38;24.43;;;14.13;;
10645;SDS011;5371;49.782;9.932;2023-12-07T12:13:07;24.73;;;13.47;;
10645;SDS011;5371;49.782;9.932;2023-12-07T12:15:35;23.50;;;13.27;;
10645;SDS011;5371;49.782;9.932;2023-12-07T12:18:02;23.53;;;13.43;;
10645;SDS011;5371;49.782;9.932;2023-12-07T12:20:29;26.10;;;14.57;;
10645;SDS011;5371;49.782;9.932;2023-12-07T12:22:57;28.13;;;16.37;;
10645;SDS011;5371;49.782;9.932;2023-12-07T12:25:24;28.80;;;15.73;;
10645;SDS011;5371;49.782;9.932;2023-12-07T12:27:55;24.90;;;14.73;;
10645;SDS011;5371;49.782;9.932;2023-12-07T12:30:22;23.70;;;14.47;;
10645;SDS011;5371;49.782;9.932;2023-12-07T12:32:50;25.77;;;14.20;;
10645;SDS011;5371;49.782;9.932;2023-12-07T12:35:17;26.27;;;14.73;;
10645;SDS011;5371;49.782;9.932;2023-12-07T12:37:45;23.80;;;13.73;;
10645;SDS011;5371;49.782;9.932;2023-12-07T12:40:14;26.40;;;13.73;;
10645;SDS011;5371;49.782;9.932;2023-12-07T12:42:44;25.53;;;13.60;;
10645;SDS011;5371;49.782;9.932;2023-12-07T12:45:13;25.43;;;13.87;;
10645;SDS011;5371;49.782;9.932;2023-12-07T12:47:40;24.93;;;14.37;;
10645;SDS011;5371;49.782;9.932;2023-12-07T12:50:08;25.70;;;15.37;;
10645;SDS011;5371;49.782;9.932;2023-12-07T12:52:36;25.23;;;14.43;;
10645;SDS011;5371;49.782;9.932;2023-12-07T12:55:08;28.67;;;16.87;;
10645;SDS011;5371;49.782;9.932;2023-12-07T12:57:36;29.40;;;16.83;;
10645;SDS011;5371;49.782;9.932;2023-12-07T13:00:04;28.07;;;16.23;;
10645;SDS011;5371;49.782;9.932;2023-12-07T13:02:34;25.73;;;15.83;;
10645;SDS011;5371;49.782;9.932;2023-12-07T13:05:01;30.07;;;16.30;;
10645;SDS011;5371;49.782;9.932;2023-12-07T13:07:29;26.50;;;15.10;;
10645;SDS011;5371;49.782;9.932;2023-12-07T13:09:56;29.97;;;16.10;;
10645;SDS011;5371;49.782;9.932;2023-12-07T13:12:23;28.97;;;16.27;;
10645;SDS011;5371;49.782;9.932;2023-12-07T13:14:53;33.53;;;18.23;;
10645;SDS011;5371;49.782;9.932;2023-12-07T13:17:20;28.60;;;16.13;;
10645;SDS011;5371;49.782;9.932;2023-12-07T13:19:48;30.37;;;17.43;;
10645;SDS011;5371;49.782;9.932;2023-12-07T13:22:15;28.40;;;16.03;;
10645;SDS011;5371;49.782;9.932;2023-12-07T13:24:42;26.63;;;15.60;;
10645;SDS011;5371;49.782;9.932;2023-12-07T13:27:09;22.50;;;14.23;;
10645;SDS011;5371;49.782;9.932;2023-12-07T13:29:36;23.00;;;13.87;;
10645;SDS011;5371;49.782;9.932;2023-12-07T13:32:04;23.57;;;14.07;;
10645;SDS011;5371;49.782;9.932;2023-12-07T13:34:31;25.63;;;15.77;;
10645;SDS011;5371;49.782;9.932;2023-12-07T13:36:59;29.87;;;16.33;;
10645;SDS011;5371;49.782;9.932;2023-12-07T13:39:26;31.30;;;17.60;;
10645;SDS011;5371;49.782;9.932;2023-12-07T13:41:55;28.67;;;16.73;;
10645;SDS011;5371;49.782;9.932;2023-12-07T13:44:22;30.87;;;18.33;;
10645;SDS011;5371;49.782;9.932;2023-12-07T13:46:49;33.37;;;18.50;;
10645;SDS011;5371;49.782;9.932;2023-12-07T13:49:19;29.43;;;17.63;;
10645;SDS011;5371;49.782;9.932;2023-12-07T13:51:47;35.27;;;19.37;;
10645;SDS011;5371;49.782;9.932;2023-12-07T13:54:17;31.57;;;19.63;;
10645;SDS011;5371;49.782;9.932;2023-12-07T13:56:44;36.93;;;20.87;;
10645;SDS011;5371;49.782;9.932;2023-12-07T13:59:11;38.67;;;22.07;;
10645;SDS011;5371;49.782;9.932;2023-12-07T14:01:38;35.50;;;20.60;;
10645;SDS011;5371;49.782;9.932;2023-12-07T14:04:06;40.23;;;21.53;;
10645;SDS011;5371;49.782;9.932;2023-12-07T14:06:33;40.07;;;22.77;;
10645;SDS011;5371;49.782;9.932;2023-12-07T14:09:00;39.20;;;22.17;;
10645;SDS011;5371;49.782;9.932;2023-12-07T14:11:29;41.37;;;21.73;;
10645;SDS011;5371;49.782;9.932;2023-12-07T14:13:56;37.57;;;21.33;;
10645;SDS011;5371;49.782;9.932;2023-12-07T14:16:23;39.67;;;21.47;;
10645;SDS011;5371;49.782;9.932;2023-12-07T14:18:51;40.87;;;22.33;;
10645;SDS011;5371;49.782;9.932;2023-12-07T14:21:20;39.30;;;22.97;;
10645;SDS011;5371;49.782;9.932;2023-12-07T14:23:48;42.63;;;22.83;;
10645;SDS011;5371;49.782;9.932;2023-12-07T14:26:15;48.93;;;24.83;;
10645;SDS011;5371;49.782;9.932;2023-12-07T14:28:44;45.33;;;23.43;;
10645;SDS011;5371;49.782;9.932;2023-12-07T14:31:11;47.33;;;24.33;;
10645;SDS011;5371;49.782;9.932;2023-12-07T14:33:42;51.83;;;25.63;;
10645;SDS011;5371;49.782;9.932;2023-12-07T14:36:10;53.13;;;25.57;;
10645;SDS011;5371;49.782;9.932;2023-12-07T14:38:38;54.70;;;26.77;;
10645;SDS011;5371;49.782;9.932;2023-12-07T14:41:06;50.83;;;26.43;;
10645;SDS011;5371;49.782;9.932;2023-12-07T14:43:33;54.17;;;26.73;;
10645;SDS011;5371;49.782;9.932;2023-12-07T14:46:02;49.00;;;25.23;;